sensor_id;sensor_type;location;lat;lon;timestamp;pressure;altitude;pressure_sealevel;temperature;humidity
12594;BME280;6362;50.208;9.182;2023-04-07T00:00:18;99891.75;;;6.22;79.31
12594;BME280;6362;50.208;9.182;2023-04-07T00:02:43;99883.09;;;6.20;80.29
12594;BME280;6362;50.208;9.182;2023-04-07T00:05:08;99890.94;;;6.28;79.52
12594;BME280;6362;50.208;9.182;2023-04-07T00:07:34;99890.91;;;6.26;78.54
12594;BME280;6362;50.208;9.182;2023-04-07T00:10:00;99884.81;;;6.21;79.31
12594;BME280;6362;50.208;9.182;2023-04-07T00:12:25;99883.97;;;6.19;79.56
12594;BME280;6362;50.208;9.182;2023-04-07T00:14:51;99883.91;;;6.16;79.80
12594;BME280;6362;50.208;9.182;2023-04-07T00:17:16;99886.53;;;6.18;79.48
12594;BME280;6362;50.208;9.182;2023-04-07T00:19:41;99880.41;;;6.06;79.75
12594;BME280;6362;50.208;9.182;2023-04-07T00:22:08;99879.56;;;6.11;79.52
12594;BME280;6362;50.208;9.182;2023-04-07T00:24:33;99877.06;;;6.20;78.70
12594;BME280;6362;50.208;9.182;2023-04-07T00:26:59;99870.09;;;6.08;79.31
12594;BME280;6362;50.208;9.182;2023-04-07T00:29:25;99873.63;;;6.19;79.55
12594;BME280;6362;50.208;9.182;2023-04-07T00:31:50;99865.13;;;6.31;78.73
12594;BME280;6362;50.208;9.182;2023-04-07T00:34:15;99860.78;;;6.27;78.15
12594;BME280;6362;50.208;9.182;2023-04-07T00:36:41;99864.31;;;6.35;78.12
12594;BME280;6362;50.208;9.182;2023-04-07T00:39:06;99864.31;;;6.33;77.79
12594;BME280;6362;50.208;9.182;2023-04-07T00:41:33;99848.63;;;6.15;79.01
12594;BME280;6362;50.208;9.182;2023-04-07T00:43:59;99845.22;;;6.18;78.70
12594;BME280;6362;50.208;9.182;2023-04-07T00:46:25;99851.16;;;6.09;79.46
12594;BME280;6362;50.208;9.182;2023-04-07T00:48:50;99848.53;;;6.03;80.00
12594;BME280;6362;50.208;9.182;2023-04-07T00:51:18;99846.84;;;6.06;80.13
12594;BME280;6362;50.208;9.182;2023-04-07T00:53:45;99842.44;;;5.98;79.69
12594;BME280;6362;50.208;9.182;2023-04-07T00:56:10;99833.84;;;5.96;80.69
12594;BME280;6362;50.208;9.182;2023-04-07T00:58:37;99835.56;;;5.98;79.50
12594;BME280;6362;50.208;9.182;2023-04-07T01:01:15;99834.00;;;6.16;79.01
12594;BME280;6362;50.208;9.182;2023-04-07T01:03:51;99832.31;;;6.19;78.52
12594;BME280;6362;50.208;9.182;2023-04-07T01:06:19;99816.06;;;6.31;78.15
12594;BME280;6362;50.208;9.182;2023-04-07T01:11:36;99819.41;;;6.18;79.24
12594;BME280;6362;50.208;9.182;2023-04-07T01:14:05;99822.88;;;6.23;79.32
12594;BME280;6362;50.208;9.182;2023-04-07T01:16:34;99818.56;;;6.22;78.87
12594;BME280;6362;50.208;9.182;2023-04-07T01:19:13;99822.81;;;6.15;79.58
12594;BME280;6362;50.208;9.182;2023-04-07T01:21:42;99808.13;;;6.06;79.47
12594;BME280;6362;50.208;9.182;2023-04-07T01:24:23;99817.63;;;6.14;79.16
12594;BME280;6362;50.208;9.182;2023-04-07T01:26:59;99816.78;;;6.12;79.49
12594;BME280;6362;50.208;9.182;2023-04-07T01:29:39;99812.34;;;5.98;80.30
12594;BME280;6362;50.208;9.182;2023-04-07T01:32:12;99809.69;;;5.92;80.85
12594;BME280;6362;50.208;9.182;2023-04-07T01:34:39;99808.78;;;5.89;81.18
12594;BME280;6362;50.208;9.182;2023-04-07T01:37:06;99807.03;;;5.88;81.51
12594;BME280;6362;50.208;9.182;2023-04-07T01:39:32;99805.31;;;5.83;82.17
12594;BME280;6362;50.208;9.182;2023-04-07T01:41:58;99808.69;;;5.81;82.58
12594;BME280;6362;50.208;9.182;2023-04-07T01:44:27;99807.88;;;5.87;81.89
12594;BME280;6362;50.208;9.182;2023-04-07T01:46:53;99806.13;;;5.82;81.19
12594;BME280;6362;50.208;9.182;2023-04-07T01:49:20;99803.53;;;5.82;81.79
12594;BME280;6362;50.208;9.182;2023-04-07T01:51:46;99803.53;;;5.81;82.28
12594;BME280;6362;50.208;9.182;2023-04-07T01:54:16;99799.22;;;5.78;83.14
12594;BME280;6362;50.208;9.182;2023-04-07T01:56:43;99798.31;;;5.75;83.83
12594;BME280;6362;50.208;9.182;2023-04-07T01:59:09;99789.72;;;5.74;83.92
12594;BME280;6362;50.208;9.182;2023-04-07T02:01:34;99790.53;;;5.70;84.81
12594;BME280;6362;50.208;9.182;2023-04-07T02:04:24;99798.25;;;5.67;85.11
12594;BME280;6362;50.208;9.182;2023-04-07T02:06:54;99792.19;;;5.64;85.83
12594;BME280;6362;50.208;9.182;2023-04-07T02:09:21;99789.56;;;5.57;85.67
12594;BME280;6362;50.208;9.182;2023-04-07T02:11:49;99784.44;;;5.62;86.16
12594;BME280;6362;50.208;9.182;2023-04-07T02:14:16;99790.47;;;5.63;85.99
12594;BME280;6362;50.208;9.182;2023-04-07T02:16:45;99782.72;;;5.64;85.92
12594;BME280;6362;50.208;9.182;2023-04-07T02:19:11;99783.53;;;5.59;86.37
12594;BME280;6362;50.208;9.182;2023-04-07T02:21:38;99782.66;;;5.56;86.38
12594;BME280;6362;50.208;9.182;2023-04-07T02:24:05;99784.41;;;5.59;86.19
12594;BME280;6362;50.208;9.182;2023-04-07T02:26:34;99783.53;;;5.60;86.08
12594;BME280;6362;50.208;9.182;2023-04-07T02:29:01;99784.41;;;5.61;86.25
12594;BME280;6362;50.208;9.182;2023-04-07T02:31:27;99784.44;;;5.62;86.47
12594;BME280;6362;50.208;9.182;2023-04-07T02:33:52;99778.44;;;5.62;85.89
12594;BME280;6362;50.208;9.182;2023-04-07T02:36:18;99778.38;;;5.59;86.36
12594;BME280;6362;50.208;9.182;2023-04-07T02:38:43;99776.66;;;5.61;86.44
12594;BME280;6362;50.208;9.182;2023-04-07T02:41:08;99775.81;;;5.60;86.67
12594;BME280;6362;50.208;9.182;2023-04-07T02:43:34;99770.66;;;5.60;86.67
12594;BME280;6362;50.208;9.182;2023-04-07T02:46:00;99772.41;;;5.63;86.77
12594;BME280;6362;50.208;9.182;2023-04-07T02:48:25;99768.97;;;5.62;86.53
12594;BME280;6362;50.208;9.182;2023-04-07T02:50:51;99768.94;;;5.61;86.51
12594;BME280;6362;50.208;9.182;2023-04-07T02:53:16;99771.56;;;5.64;86.56
12594;BME280;6362;50.208;9.182;2023-04-07T02:55:41;99775.00;;;5.63;86.47
12594;BME280;6362;50.208;9.182;2023-04-07T02:58:07;99768.06;;;5.57;86.70
12594;BME280;6362;50.208;9.182;2023-04-07T03:00:33;99774.06;;;5.56;86.70
12594;BME280;6362;50.208;9.182;2023-04-07T03:02:58;99761.13;;;5.51;86.97
12594;BME280;6362;50.208;9.182;2023-04-07T03:05:24;99771.50;;;5.59;86.67
12594;BME280;6362;50.208;9.182;2023-04-07T03:07:49;99763.69;;;5.51;87.06
12594;BME280;6362;50.208;9.182;2023-04-07T03:10:15;99759.41;;;5.50;86.88
12594;BME280;6362;50.208;9.182;2023-04-07T03:12:41;99763.72;;;5.53;86.82
12594;BME280;6362;50.208;9.182;2023-04-07T03:15:07;99754.25;;;5.53;86.62
12594;BME280;6362;50.208;9.182;2023-04-07T03:17:33;99762.84;;;5.54;86.96
12594;BME280;6362;50.208;9.182;2023-04-07T03:19:58;99762.00;;;5.53;87.26
12594;BME280;6362;50.208;9.182;2023-04-07T03:22:23;99762.84;;;5.52;87.03
12594;BME280;6362;50.208;9.182;2023-04-07T03:24:49;99756.81;;;5.52;87.56
12594;BME280;6362;50.208;9.182;2023-04-07T03:27:14;99751.63;;;5.49;86.98
12594;BME280;6362;50.208;9.182;2023-04-07T03:29:41;99750.81;;;5.50;86.95
12594;BME280;6362;50.208;9.182;2023-04-07T03:32:07;99756.78;;;5.49;86.71
12594;BME280;6362;50.208;9.182;2023-04-07T03:34:33;99750.75;;;5.48;87.32
12594;BME280;6362;50.208;9.182;2023-04-07T03:36:58;99752.47;;;5.48;87.47
12594;BME280;6362;50.208;9.182;2023-04-07T03:39:24;99744.72;;;5.46;86.97
12594;BME280;6362;50.208;9.182;2023-04-07T03:41:49;99740.44;;;5.48;87.09
12594;BME280;6362;50.208;9.182;2023-04-07T03:44:16;99748.19;;;5.48;87.34
12594;BME280;6362;50.208;9.182;2023-04-07T03:46:41;99741.31;;;5.49;87.05
12594;BME280;6362;50.208;9.182;2023-04-07T03:49:06;99742.16;;;5.46;87.36
12594;BME280;6362;50.208;9.182;2023-04-07T03:51:32;99745.59;;;5.48;87.45
12594;BME280;6362;50.208;9.182;2023-04-07T03:53:58;99736.13;;;5.46;87.20
12594;BME280;6362;50.208;9.182;2023-04-07T03:56:24;99743.03;;;5.48;87.47
12594;BME280;6362;50.208;9.182;2023-04-07T03:58:49;99738.72;;;5.47;87.21
12594;BME280;6362;50.208;9.182;2023-04-07T04:01:15;99746.44;;;5.46;87.30
12594;BME280;6362;50.208;9.182;2023-04-07T04:03:41;99741.31;;;5.49;87.00
12594;BME280;6362;50.208;9.182;2023-04-07T04:06:06;99739.53;;;5.42;87.64
12594;BME280;6362;50.208;9.182;2023-04-07T04:08:32;99743.81;;;5.41;87.62
12594;BME280;6362;50.208;9.182;2023-04-07T04:10:57;99747.25;;;5.42;87.13
12594;BME280;6362;50.208;9.182;2023-04-07T04:13:23;99738.66;;;5.43;87.41
12594;BME280;6362;50.208;9.182;2023-04-07T04:15:48;99741.25;;;5.43;88.12
12594;BME280;6362;50.208;9.182;2023-04-07T04:18:14;99744.72;;;5.45;87.40
12594;BME280;6362;50.208;9.182;2023-04-07T04:20:39;99736.09;;;5.43;87.28
12594;BME280;6362;50.208;9.182;2023-04-07T04:23:05;99746.41;;;5.41;87.53
12594;BME280;6362;50.208;9.182;2023-04-07T04:25:31;99742.91;;;5.38;87.77
12594;BME280;6362;50.208;9.182;2023-04-07T04:27:56;99748.94;;;5.38;88.02
12594;BME280;6362;50.208;9.182;2023-04-07T04:30:21;99744.69;;;5.40;87.48
12594;BME280;6362;50.208;9.182;2023-04-07T04:32:47;99751.50;;;5.38;87.74
12594;BME280;6362;50.208;9.182;2023-04-07T04:35:13;99747.25;;;5.40;88.43
12594;BME280;6362;50.208;9.182;2023-04-07T04:37:39;99748.97;;;5.41;88.13
12594;BME280;6362;50.208;9.182;2023-04-07T04:40:05;99743.81;;;5.40;87.62
12594;BME280;6362;50.208;9.182;2023-04-07T04:42:33;99742.94;;;5.39;87.99
12594;BME280;6362;50.208;9.182;2023-04-07T04:44:58;99746.34;;;5.38;88.29
12594;BME280;6362;50.208;9.182;2023-04-07T04:47:24;99748.06;;;5.36;88.22
12594;BME280;6362;50.208;9.182;2023-04-07T04:49:49;99744.63;;;5.34;87.87
12594;BME280;6362;50.208;9.182;2023-04-07T04:52:15;99749.78;;;5.34;88.12
12594;BME280;6362;50.208;9.182;2023-04-07T04:54:40;99751.44;;;5.32;87.76
12594;BME280;6362;50.208;9.182;2023-04-07T04:57:06;99750.63;;;5.33;88.40
12594;BME280;6362;50.208;9.182;2023-04-07T04:59:33;99754.06;;;5.35;88.68
12594;BME280;6362;50.208;9.182;2023-04-07T05:01:58;99753.22;;;5.36;87.97
12594;BME280;6362;50.208;9.182;2023-04-07T05:04:23;99759.22;;;5.34;88.19
12594;BME280;6362;50.208;9.182;2023-04-07T05:06:49;99760.97;;;5.36;88.66
12594;BME280;6362;50.208;9.182;2023-04-07T05:09:15;99756.66;;;5.37;88.29
12594;BME280;6362;50.208;9.182;2023-04-07T05:11:42;99750.69;;;5.39;88.35
12594;BME280;6362;50.208;9.182;2023-04-07T05:14:07;99755.00;;;5.42;88.20
12594;BME280;6362;50.208;9.182;2023-04-07T05:16:34;99748.13;;;5.42;88.33
12594;BME280;6362;50.208;9.182;2023-04-07T05:19:00;99749.03;;;5.47;88.40
12594;BME280;6362;50.208;9.182;2023-04-07T05:21:25;99753.28;;;5.44;88.24
12594;BME280;6362;50.208;9.182;2023-04-07T05:23:51;99749.03;;;5.44;88.55
12594;BME280;6362;50.208;9.182;2023-04-07T05:26:17;99746.44;;;5.44;87.88
12594;BME280;6362;50.208;9.182;2023-04-07T05:28:42;99744.72;;;5.46;87.78
12594;BME280;6362;50.208;9.182;2023-04-07T05:31:07;99743.00;;;5.47;87.92
12594;BME280;6362;50.208;9.182;2023-04-07T05:33:33;99743.91;;;5.50;88.01
12594;BME280;6362;50.208;9.182;2023-04-07T05:35:58;99744.78;;;5.54;87.72
12594;BME280;6362;50.208;9.182;2023-04-07T05:38:24;99746.56;;;5.58;87.79
12594;BME280;6362;50.208;9.182;2023-04-07T05:40:50;99742.25;;;5.55;87.65
12594;BME280;6362;50.208;9.182;2023-04-07T05:43:15;99741.41;;;5.56;87.88
12594;BME280;6362;50.208;9.182;2023-04-07T05:45:41;99739.69;;;5.57;87.52
12594;BME280;6362;50.208;9.182;2023-04-07T05:48:06;99742.25;;;5.55;87.68
12594;BME280;6362;50.208;9.182;2023-04-07T05:50:32;99741.41;;;5.58;87.98
12594;BME280;6362;50.208;9.182;2023-04-07T05:52:57;99748.34;;;5.64;87.95
12594;BME280;6362;50.208;9.182;2023-04-07T05:55:22;99744.91;;;5.63;87.85
12594;BME280;6362;50.208;9.182;2023-04-07T05:57:48;99744.03;;;5.64;87.82
12594;BME280;6362;50.208;9.182;2023-04-07T06:00:14;99744.03;;;5.66;87.74
12594;BME280;6362;50.208;9.182;2023-04-07T06:02:39;99744.03;;;5.64;87.57
12594;BME280;6362;50.208;9.182;2023-04-07T06:05:06;99749.25;;;5.70;87.41
12594;BME280;6362;50.208;9.182;2023-04-07T06:07:31;99740.66;;;5.70;87.34
12594;BME280;6362;50.208;9.182;2023-04-07T06:09:57;99740.66;;;5.71;87.58
12594;BME280;6362;50.208;9.182;2023-04-07T06:12:22;99749.25;;;5.70;87.18
12594;BME280;6362;50.208;9.182;2023-04-07T06:14:54;99752.69;;;5.71;87.25
12594;BME280;6362;50.208;9.182;2023-04-07T06:17:21;99751.88;;;5.75;86.92
12594;BME280;6362;50.208;9.182;2023-04-07T06:19:46;99750.19;;;5.80;86.55
12594;BME280;6362;50.208;9.182;2023-04-07T06:22:12;99749.34;;;5.79;86.18
12594;BME280;6362;50.208;9.182;2023-04-07T06:24:37;99752.84;;;5.85;86.33
12594;BME280;6362;50.208;9.182;2023-04-07T06:27:03;99752.84;;;5.85;86.67
12594;BME280;6362;50.208;9.182;2023-04-07T06:29:29;99759.72;;;5.86;86.09
12594;BME280;6362;50.208;9.182;2023-04-07T06:31:55;99754.56;;;5.84;85.90
12594;BME280;6362;50.208;9.182;2023-04-07T06:34:20;99739.06;;;5.86;86.24
12594;BME280;6362;50.208;9.182;2023-04-07T06:36:46;99745.13;;;5.89;86.38
12594;BME280;6362;50.208;9.182;2023-04-07T06:39:11;99746.94;;;5.96;86.24
12594;BME280;6362;50.208;9.182;2023-04-07T06:41:36;99746.97;;;6.04;86.42
12594;BME280;6362;50.208;9.182;2023-04-07T06:44:03;99745.25;;;6.04;86.01
12594;BME280;6362;50.208;9.182;2023-04-07T06:46:29;99748.75;;;6.09;86.31
12594;BME280;6362;50.208;9.182;2023-04-07T06:48:54;99754.78;;;6.08;86.18
12594;BME280;6362;50.208;9.182;2023-04-07T06:51:20;99752.16;;;6.04;85.92
12594;BME280;6362;50.208;9.182;2023-04-07T06:53:45;99755.63;;;6.09;85.94
12594;BME280;6362;50.208;9.182;2023-04-07T06:56:12;99751.31;;;6.06;85.54
12594;BME280;6362;50.208;9.182;2023-04-07T06:58:38;99755.63;;;6.07;86.19
12594;BME280;6362;50.208;9.182;2023-04-07T07:01:04;99748.78;;;6.11;86.16
12594;BME280;6362;50.208;9.182;2023-04-07T07:03:30;99752.19;;;6.10;86.24
12594;BME280;6362;50.208;9.182;2023-04-07T07:05:57;99756.50;;;6.08;86.43
12594;BME280;6362;50.208;9.182;2023-04-07T07:08:22;99758.22;;;6.06;86.11
12594;BME280;6362;50.208;9.182;2023-04-07T07:10:48;99754.81;;;6.12;86.32
12594;BME280;6362;50.208;9.182;2023-04-07T07:13:13;99760.84;;;6.15;86.12
12594;BME280;6362;50.208;9.182;2023-04-07T07:15:39;99752.22;;;6.16;86.09
12594;BME280;6362;50.208;9.182;2023-04-07T07:18:04;99760.00;;;6.19;86.36
12594;BME280;6362;50.208;9.182;2023-04-07T07:20:29;99760.06;;;6.24;86.33
12594;BME280;6362;50.208;9.182;2023-04-07T07:22:55;99765.22;;;6.25;86.28
12594;BME280;6362;50.208;9.182;2023-04-07T07:25:21;99763.53;;;6.30;86.23
12594;BME280;6362;50.208;9.182;2023-04-07T07:27:46;99761.81;;;6.32;86.44
12594;BME280;6362;50.208;9.182;2023-04-07T07:30:16;99763.63;;;6.40;85.96
12594;BME280;6362;50.208;9.182;2023-04-07T07:32:41;99761.88;;;6.43;86.17
12594;BME280;6362;50.208;9.182;2023-04-07T07:35:07;99767.09;;;6.46;85.80
12594;BME280;6362;50.208;9.182;2023-04-07T07:37:32;99765.38;;;6.48;86.18
12594;BME280;6362;50.208;9.182;2023-04-07T07:39:58;99770.56;;;6.50;85.81
12594;BME280;6362;50.208;9.182;2023-04-07T07:42:23;99769.72;;;6.54;86.00
12594;BME280;6362;50.208;9.182;2023-04-07T07:44:48;99764.56;;;6.55;85.07
12594;BME280;6362;50.208;9.182;2023-04-07T07:47:15;99773.19;;;6.59;85.85
12594;BME280;6362;50.208;9.182;2023-04-07T07:49:40;99768.06;;;6.64;84.80
12594;BME280;6362;50.208;9.182;2023-04-07T07:52:06;99778.41;;;6.71;85.09
12594;BME280;6362;50.208;9.182;2023-04-07T07:54:31;99777.56;;;6.68;83.79
12594;BME280;6362;50.208;9.182;2023-04-07T07:56:56;99770.69;;;6.73;83.49
12594;BME280;6362;50.208;9.182;2023-04-07T07:59:22;99781.03;;;6.76;83.67
12594;BME280;6362;50.208;9.182;2023-04-07T08:01:47;99782.78;;;6.80;84.25
12594;BME280;6362;50.208;9.182;2023-04-07T08:04:13;99784.53;;;6.84;84.56
12594;BME280;6362;50.208;9.182;2023-04-07T08:06:38;99788.00;;;6.83;83.99
12594;BME280;6362;50.208;9.182;2023-04-07T08:09:03;99783.69;;;6.83;84.21
12594;BME280;6362;50.208;9.182;2023-04-07T08:11:30;99794.88;;;6.87;84.54
12594;BME280;6362;50.208;9.182;2023-04-07T08:13:55;99792.28;;;6.87;84.59
12594;BME280;6362;50.208;9.182;2023-04-07T08:16:21;99790.59;;;6.92;84.83
12594;BME280;6362;50.208;9.182;2023-04-07T08:18:47;99794.91;;;6.90;84.65
12594;BME280;6362;50.208;9.182;2023-04-07T08:21:13;99791.41;;;6.82;84.79
12594;BME280;6362;50.208;9.182;2023-04-07T08:23:38;99798.31;;;6.84;85.12
12594;BME280;6362;50.208;9.182;2023-04-07T08:26:04;99804.38;;;6.90;85.11
12594;BME280;6362;50.208;9.182;2023-04-07T08:28:29;99800.94;;;6.92;85.20
12594;BME280;6362;50.208;9.182;2023-04-07T08:30:55;99808.72;;;6.95;85.21
12594;BME280;6362;50.208;9.182;2023-04-07T08:33:20;99801.81;;;6.97;85.22
12594;BME280;6362;50.208;9.182;2023-04-07T08:35:46;99807.88;;;6.96;84.32
12594;BME280;6362;50.208;9.182;2023-04-07T08:38:11;99806.13;;;6.95;84.01
12594;BME280;6362;50.208;9.182;2023-04-07T08:40:37;99803.59;;;7.00;84.44
12594;BME280;6362;50.208;9.182;2023-04-07T08:43:07;99806.19;;;7.06;84.40
12594;BME280;6362;50.208;9.182;2023-04-07T08:45:37;99807.03;;;7.00;84.50
12594;BME280;6362;50.208;9.182;2023-04-07T08:48:08;99819.09;;;7.04;84.99
12594;BME280;6362;50.208;9.182;2023-04-07T08:50:36;99819.94;;;7.05;84.75
12594;BME280;6362;50.208;9.182;2023-04-07T08:53:03;99817.41;;;7.06;84.70
12594;BME280;6362;50.208;9.182;2023-04-07T08:55:31;99820.00;;;7.11;84.62
12594;BME280;6362;50.208;9.182;2023-04-07T08:57:56;99821.72;;;7.12;84.88
12594;BME280;6362;50.208;9.182;2023-04-07T09:00:22;99823.47;;;7.18;84.52
12594;BME280;6362;50.208;9.182;2023-04-07T09:02:48;99820.88;;;7.16;84.28
12594;BME280;6362;50.208;9.182;2023-04-07T09:05:15;99817.41;;;7.12;84.05
12594;BME280;6362;50.208;9.182;2023-04-07T09:07:41;99823.47;;;7.19;84.92
12594;BME280;6362;50.208;9.182;2023-04-07T09:10:10;99820.03;;;7.19;83.89
12594;BME280;6362;50.208;9.182;2023-04-07T09:12:35;99825.22;;;7.26;83.77
12594;BME280;6362;50.208;9.182;2023-04-07T09:15:02;99829.56;;;7.29;84.19
12594;BME280;6362;50.208;9.182;2023-04-07T09:17:28;99826.13;;;7.33;84.40
12594;BME280;6362;50.208;9.182;2023-04-07T09:19:58;99831.31;;;7.37;84.55
12594;BME280;6362;50.208;9.182;2023-04-07T09:22:43;99833.06;;;7.46;84.40
12594;BME280;6362;50.208;9.182;2023-04-07T09:25:18;99832.22;;;7.50;83.85
12594;BME280;6362;50.208;9.182;2023-04-07T09:27:57;99832.22;;;7.55;83.62
12594;BME280;6362;50.208;9.182;2023-04-07T09:30:24;99830.50;;;7.60;84.25
12594;BME280;6362;50.208;9.182;2023-04-07T09:32:49;99833.13;;;7.61;83.94
12594;BME280;6362;50.208;9.182;2023-04-07T09:35:15;99833.09;;;7.57;83.41
12594;BME280;6362;50.208;9.182;2023-04-07T09:37:41;99840.00;;;7.58;83.33
12594;BME280;6362;50.208;9.182;2023-04-07T09:40:07;99833.97;;;7.51;81.84
12594;BME280;6362;50.208;9.182;2023-04-07T09:42:33;99833.13;;;7.55;82.44
12594;BME280;6362;50.208;9.182;2023-04-07T09:45:00;99833.09;;;7.57;82.83
12594;BME280;6362;50.208;9.182;2023-04-07T09:47:30;99837.47;;;7.67;82.45
12594;BME280;6362;50.208;9.182;2023-04-07T09:49:57;99836.59;;;7.68;82.34
12594;BME280;6362;50.208;9.182;2023-04-07T09:52:51;99838.31;;;7.77;82.26
12594;BME280;6362;50.208;9.182;2023-04-07T09:55:21;99828.84;;;7.85;82.35
12594;BME280;6362;50.208;9.182;2023-04-07T09:57:50;99834.03;;;7.86;82.12
12594;BME280;6362;50.208;9.182;2023-04-07T10:00:16;99834.91;;;7.93;82.17
12594;BME280;6362;50.208;9.182;2023-04-07T10:02:42;99835.78;;;7.89;82.37
12594;BME280;6362;50.208;9.182;2023-04-07T10:05:09;99833.19;;;7.97;81.88
12594;BME280;6362;50.208;9.182;2023-04-07T10:07:35;99833.19;;;8.03;83.22
12594;BME280;6362;50.208;9.182;2023-04-07T10:10:02;99835.81;;;8.12;82.97
12594;BME280;6362;50.208;9.182;2023-04-07T10:12:28;99835.78;;;8.19;82.32
12594;BME280;6362;50.208;9.182;2023-04-07T10:14:55;99836.66;;;8.21;80.59
12594;BME280;6362;50.208;9.182;2023-04-07T10:17:22;99833.22;;;8.26;80.30
12594;BME280;6362;50.208;9.182;2023-04-07T10:19:49;99835.78;;;8.32;80.41
12594;BME280;6362;50.208;9.182;2023-04-07T10:22:15;99840.13;;;8.30;80.23
12594;BME280;6362;50.208;9.182;2023-04-07T10:24:55;99843.63;;;8.39;80.14
12594;BME280;6362;50.208;9.182;2023-04-07T10:27:42;99841.00;;;8.38;80.46
12594;BME280;6362;50.208;9.182;2023-04-07T10:30:17;99837.59;;;8.39;79.68
12594;BME280;6362;50.208;9.182;2023-04-07T10:32:47;99838.41;;;8.42;80.03
12594;BME280;6362;50.208;9.182;2023-04-07T10:35:13;99852.22;;;8.34;79.16
12594;BME280;6362;50.208;9.182;2023-04-07T10:37:38;99846.19;;;8.52;77.54
12594;BME280;6362;50.208;9.182;2023-04-07T10:42:45;99851.34;;;8.24;79.22
12594;BME280;6362;50.208;9.182;2023-04-07T10:45:12;99853.06;;;8.31;78.13
12594;BME280;6362;50.208;9.182;2023-04-07T10:50:22;99857.38;;;8.15;79.38
12594;BME280;6362;50.208;9.182;2023-04-07T10:53:03;99863.44;;;8.19;80.05
12594;BME280;6362;50.208;9.182;2023-04-07T10:55:35;99865.16;;;8.14;80.00
12594;BME280;6362;50.208;9.182;2023-04-07T10:58:27;99867.75;;;8.14;80.15
12594;BME280;6362;50.208;9.182;2023-04-07T11:03:21;99869.47;;;8.06;80.23
12594;BME280;6362;50.208;9.182;2023-04-07T11:05:47;99872.03;;;8.10;79.63
12594;BME280;6362;50.208;9.182;2023-04-07T11:08:12;99874.66;;;8.12;79.51
12594;BME280;6362;50.208;9.182;2023-04-07T11:10:38;99874.66;;;8.13;79.47
12594;BME280;6362;50.208;9.182;2023-04-07T11:13:04;99871.22;;;8.11;78.84
12594;BME280;6362;50.208;9.182;2023-04-07T11:15:30;99868.56;;;7.99;80.59
12594;BME280;6362;50.208;9.182;2023-04-07T11:18:13;99868.59;;;8.07;80.86
12594;BME280;6362;50.208;9.182;2023-04-07T11:20:43;99870.34;;;8.11;81.17
12594;BME280;6362;50.208;9.182;2023-04-07T11:23:08;99869.47;;;8.13;81.08
12594;BME280;6362;50.208;9.182;2023-04-07T11:25:35;99872.94;;;8.25;81.40
12594;BME280;6362;50.208;9.182;2023-04-07T11:28:02;99871.22;;;8.30;82.33
12594;BME280;6362;50.208;9.182;2023-04-07T11:30:28;99873.78;;;8.33;80.77
12594;BME280;6362;50.208;9.182;2023-04-07T11:32:54;99867.78;;;8.37;80.33
12594;BME280;6362;50.208;9.182;2023-04-07T11:35:21;99879.88;;;8.42;80.22
12594;BME280;6362;50.208;9.182;2023-04-07T11:37:47;99871.25;;;8.46;78.90
12594;BME280;6362;50.208;9.182;2023-04-07T11:40:12;99868.66;;;8.51;79.14
12594;BME280;6362;50.208;9.182;2023-04-07T11:42:41;99870.41;;;8.55;80.19
12594;BME280;6362;50.208;9.182;2023-04-07T11:45:17;99871.25;;;8.57;79.56
12594;BME280;6362;50.208;9.182;2023-04-07T11:47:43;99870.41;;;8.57;78.91
12594;BME280;6362;50.208;9.182;2023-04-07T11:50:09;99869.50;;;8.59;78.61
12594;BME280;6362;50.208;9.182;2023-04-07T11:52:46;99877.28;;;8.64;79.70
12594;BME280;6362;50.208;9.182;2023-04-07T11:55:18;99872.97;;;8.66;79.31
12594;BME280;6362;50.208;9.182;2023-04-07T11:57:45;99880.72;;;8.77;80.02
12594;BME280;6362;50.208;9.182;2023-04-07T12:00:13;99879.00;;;8.76;79.23
12594;BME280;6362;50.208;9.182;2023-04-07T12:02:38;99879.03;;;8.79;78.95
12594;BME280;6362;50.208;9.182;2023-04-07T12:05:05;99877.25;;;8.82;78.83
12594;BME280;6362;50.208;9.182;2023-04-07T12:07:30;99873.81;;;8.80;78.79
12594;BME280;6362;50.208;9.182;2023-04-07T12:09:56;99871.19;;;8.88;78.86
12594;BME280;6362;50.208;9.182;2023-04-07T12:12:26;99872.06;;;8.87;79.38
12594;BME280;6362;50.208;9.182;2023-04-07T12:14:55;99877.25;;;8.93;80.05
12594;BME280;6362;50.208;9.182;2023-04-07T12:17:25;99877.25;;;8.82;78.72
12594;BME280;6362;50.208;9.182;2023-04-07T12:19:52;99879.03;;;8.74;79.28
12594;BME280;6362;50.208;9.182;2023-04-07T12:22:18;99877.28;;;8.79;78.85
12594;BME280;6362;50.208;9.182;2023-04-07T12:24:44;99880.72;;;8.77;79.34
12594;BME280;6362;50.208;9.182;2023-04-07T12:27:09;99883.34;;;8.64;79.87
12594;BME280;6362;50.208;9.182;2023-04-07T12:29:35;99886.81;;;8.66;79.11
12594;BME280;6362;50.208;9.182;2023-04-07T12:32:04;99885.06;;;8.64;79.26
12594;BME280;6362;50.208;9.182;2023-04-07T12:34:29;99881.63;;;8.66;78.89
12594;BME280;6362;50.208;9.182;2023-04-07T12:36:55;99879.88;;;8.71;80.00
12594;BME280;6362;50.208;9.182;2023-04-07T12:39:20;99883.34;;;8.78;79.95
12594;BME280;6362;50.208;9.182;2023-04-07T12:41:46;99884.19;;;8.77;79.56
12594;BME280;6362;50.208;9.182;2023-04-07T12:44:13;99883.34;;;8.84;79.67
12594;BME280;6362;50.208;9.182;2023-04-07T12:46:38;99882.44;;;8.96;79.61
12594;BME280;6362;50.208;9.182;2023-04-07T12:49:04;99883.25;;;9.15;80.05
12594;BME280;6362;50.208;9.182;2023-04-07T12:51:30;99880.63;;;9.32;80.03
12594;BME280;6362;50.208;9.182;2023-04-07T12:53:57;99882.28;;;9.48;79.79
12594;BME280;6362;50.208;9.182;2023-04-07T12:56:25;99882.22;;;9.65;78.51
12594;BME280;6362;50.208;9.182;2023-04-07T12:58:50;99874.34;;;9.83;78.30
12594;BME280;6362;50.208;9.182;2023-04-07T13:01:17;99882.94;;;9.96;77.56
12594;BME280;6362;50.208;9.182;2023-04-07T13:03:43;99886.31;;;10.09;77.67
12594;BME280;6362;50.208;9.182;2023-04-07T13:06:08;99875.91;;;10.12;77.19
12594;BME280;6362;50.208;9.182;2023-04-07T13:08:35;99876.75;;;10.12;76.36
12594;BME280;6362;50.208;9.182;2023-04-07T13:11:00;99879.38;;;10.12;75.41
12594;BME280;6362;50.208;9.182;2023-04-07T13:13:26;99883.72;;;10.04;75.69
12594;BME280;6362;50.208;9.182;2023-04-07T13:15:51;99877.78;;;9.87;75.80
12594;BME280;6362;50.208;9.182;2023-04-07T13:18:17;99891.69;;;9.76;76.59
12594;BME280;6362;50.208;9.182;2023-04-07T13:20:42;99877.91;;;9.62;76.03
12594;BME280;6362;50.208;9.182;2023-04-07T13:23:08;99891.75;;;9.60;76.29
12594;BME280;6362;50.208;9.182;2023-04-07T13:25:33;99888.31;;;9.56;77.10
12594;BME280;6362;50.208;9.182;2023-04-07T13:28:00;99881.41;;;9.57;77.77
12594;BME280;6362;50.208;9.182;2023-04-07T13:30:25;99890.03;;;9.63;77.98